createdAt,value
2023-12-23T00:05:20.973Z,1.16
2023-12-23T00:15:25.146Z,1.14
2023-12-23T00:25:28.943Z,1.15
2023-12-23T00:35:32.843Z,1.22
2023-12-23T00:45:37.559Z,1.27
2023-12-23T00:55:41.781Z,1.31
2023-12-23T01:05:45.707Z,1.38
2023-12-23T01:15:49.824Z,1.30
2023-12-23T01:25:53.923Z,1.28
2023-12-23T01:35:57.941Z,1.08
2023-12-23T01:46:03.028Z,0.92
2023-12-23T01:56:07.894Z,0.96
2023-12-23T02:06:11.831Z,1.07
2023-12-23T02:16:17.225Z,1.23
2023-12-23T02:26:25.124Z,1.28
2023-12-23T02:36:29.076Z,1.28
2023-12-23T02:46:33.692Z,1.19
2023-12-23T02:56:37.577Z,1.17
2023-12-23T03:06:41.417Z,1.20
2023-12-23T03:16:45.290Z,1.19
2023-12-23T03:26:49.270Z,1.24
2023-12-23T03:36:53.196Z,1.07
2023-12-23T03:46:57.888Z,0.94
2023-12-23T03:57:02.102Z,0.79
2023-12-23T04:07:06.643Z,0.81
2023-12-23T04:17:10.668Z,0.79
2023-12-23T04:27:14.976Z,0.72
2023-12-23T04:37:19.284Z,0.57
2023-12-23T04:47:23.898Z,0.58
2023-12-23T04:57:29.586Z,0.51
2023-12-23T05:07:36.088Z,0.36
2023-12-23T05:17:40.214Z,0.23
2023-12-23T05:27:45.576Z,0.21
2023-12-23T05:37:49.878Z,0.07
2023-12-23T05:47:54.843Z,-0.09
2023-12-23T05:57:58.945Z,-0.23
2023-12-23T06:08:03.891Z,-0.22
2023-12-23T06:18:08.122Z,-0.09
2023-12-23T06:28:12.136Z,-0.13
2023-12-23T06:38:17.572Z,-0.13
2023-12-23T06:48:21.656Z,-0.03
2023-12-23T06:58:28.372Z,0.10
2023-12-23T07:08:32.346Z,0.27
2023-12-23T07:18:36.336Z,0.35
2023-12-23T07:28:40.320Z,0.44
2023-12-23T07:38:44.465Z,0.46
2023-12-23T07:48:48.683Z,0.55
2023-12-23T07:58:53.777Z,0.51
2023-12-23T08:08:57.660Z,0.64
2023-12-23T08:19:08.380Z,0.70
2023-12-23T08:29:12.211Z,0.71
2023-12-23T08:39:16.257Z,0.87
2023-12-23T08:49:21.357Z,0.86
2023-12-23T08:59:25.391Z,0.92
2023-12-23T09:09:29.393Z,0.99
2023-12-23T09:19:34.113Z,0.99
2023-12-23T09:29:38.078Z,1.16
2023-12-23T09:39:41.885Z,1.25
2023-12-23T09:49:45.961Z,1.31
2023-12-23T09:59:52.463Z,1.23
2023-12-23T10:09:56.327Z,1.02
2023-12-23T10:20:00.620Z,0.98
2023-12-23T10:30:10.296Z,0.87
2023-12-23T10:40:19.279Z,0.78
2023-12-23T10:50:24.795Z,0.74
2023-12-23T11:00:28.969Z,0.76
2023-12-23T11:10:38.040Z,0.82
2023-12-23T11:20:51.568Z,0.77
2023-12-23T11:31:00.776Z,0.72
2023-12-23T11:41:05.783Z,0.63
2023-12-23T11:51:11.901Z,0.65
2023-12-23T12:01:15.883Z,0.86
2023-12-23T12:11:19.859Z,1.07
2023-12-23T12:21:24.498Z,1.09
2023-12-23T12:31:28.950Z,0.99
2023-12-23T12:41:38.661Z,0.78
2023-12-23T12:51:43.772Z,0.60
2023-12-23T13:01:47.757Z,0.45
2023-12-23T13:11:52.009Z,0.30
2023-12-23T13:21:55.962Z,0.21
2023-12-23T13:32:01.038Z,0.16
2023-12-23T13:42:05.851Z,0.10
2023-12-23T13:52:09.995Z,0.11
2023-12-23T14:02:13.886Z,-0.02
2023-12-23T14:12:18.652Z,-0.02
2023-12-23T14:22:22.633Z,-0.07
2023-12-23T14:32:26.812Z,-0.13
2023-12-23T14:42:32.175Z,-0.24
2023-12-23T14:52:36.122Z,-0.31
2023-12-23T15:02:41.808Z,-0.30
2023-12-23T15:12:46.629Z,-0.27
2023-12-23T15:22:50.725Z,-0.26
2023-12-23T15:32:58.075Z,-0.22
2023-12-23T15:43:02.055Z,-0.28
2023-12-23T15:53:06.031Z,-0.33
2023-12-23T16:03:10.753Z,-0.25
2023-12-23T16:13:15.576Z,-0.21
2023-12-23T16:23:19.835Z,0.00
2023-12-23T16:33:23.986Z,0.14
2023-12-23T16:43:28.185Z,0.17
2023-12-23T16:53:32.237Z,0.28
2023-12-23T17:03:36.171Z,0.23
2023-12-23T17:13:41.695Z,0.35
2023-12-23T17:23:46.093Z,0.39
2023-12-23T17:33:50.104Z,0.43
2023-12-23T17:43:54.129Z,0.42
2023-12-23T17:53:58.626Z,0.34
2023-12-23T18:04:02.554Z,0.26
2023-12-23T18:14:06.651Z,0.22
2023-12-23T18:24:13.601Z,0.23
2023-12-23T18:34:17.791Z,0.28
2023-12-23T18:44:23.097Z,0.34
2023-12-23T18:54:27.110Z,0.28
2023-12-23T19:04:31.226Z,0.21
2023-12-23T19:14:35.334Z,0.27
2023-12-23T19:24:41.753Z,0.21
2023-12-23T19:34:45.819Z,0.14
2023-12-23T19:44:54.642Z,0.16
2023-12-23T19:55:00.690Z,0.11
2023-12-23T20:05:06.551Z,0.06
2023-12-23T20:15:11.404Z,-0.07
2023-12-23T20:25:15.741Z,0.03
2023-12-23T20:35:20.404Z,0.08
2023-12-23T20:45:25.736Z,0.03
2023-12-23T20:55:29.832Z,0.07
2023-12-23T21:05:34.249Z,0.20
2023-12-23T21:15:38.981Z,0.19
2023-12-23T21:25:45.529Z,0.11
2023-12-23T21:35:50.036Z,0.05
2023-12-23T21:45:55.124Z,0.06
2023-12-23T21:56:00.105Z,0.09
2023-12-23T22:06:05.466Z,0.06
2023-12-23T22:16:11.322Z,-0.01
2023-12-23T22:26:15.233Z,0.05
2023-12-23T22:36:21.318Z,0.11
2023-12-23T22:46:25.811Z,0.09
2023-12-23T22:56:29.831Z,0.10
2023-12-23T23:06:33.821Z,0.14
2023-12-23T23:16:38.316Z,0.23
2023-12-23T23:26:42.166Z,0.21
2023-12-23T23:36:46.047Z,0.14
2023-12-23T23:46:50.708Z,0.09
2023-12-23T23:56:54.567Z,0.14
